Lougheed, Canada
Current Conditions -  °F | °C
As of 6:00 AM on Sunday 21 Dec 2014 (Local Time) from CYLL Reporting Station
Moderate Snow Moderate Snow  
Wind Chill:   Ceiling: 200
Heat Index: 16°   Visibility: 0.5mi
Dew Point: 14°   Wind: 12mph
Humidity: 93%   Direction: 120°ESE
Pressure: 29.34"   Gusts: 17mph
Location:  52.73°N, 111.55°W
Report Text: CYLL 211300Z AUTO 12010G15KT 1/2SM SN VV002 M09/M10 A2934 RMK ICG SLP977
Loading
Personal Weather Stations






























Interactive Weather Map New forecast layout! Learn more

10-Day Weather Forecast

Advertisements
Track Severe Weather on mobile